createdAt,value
2023-04-18T00:00:58.726Z,32.60
2023-04-18T00:03:29.989Z,31.88
2023-04-18T00:05:59.494Z,33.58
2023-04-18T00:08:29.875Z,31.90
2023-04-18T00:10:58.924Z,32.30
2023-04-18T00:13:28.526Z,33.45
2023-04-18T00:15:57.595Z,38.17
2023-04-18T00:18:27.917Z,34.38
2023-04-18T00:20:56.954Z,34.30
2023-04-18T00:23:28.296Z,32.60
2023-04-18T00:28:27.577Z,35.50
2023-04-18T00:30:57.496Z,33.75
2023-04-18T00:33:26.537Z,31.88
2023-04-18T00:35:55.572Z,34.38
2023-04-18T00:38:24.582Z,33.88
2023-04-18T00:40:53.612Z,34.42
2023-04-18T00:43:25.612Z,34.72
2023-04-18T00:45:54.736Z,31.00
2023-04-18T00:48:24.916Z,34.80
2023-04-18T00:50:56.701Z,28.70
2023-04-18T00:53:26.134Z,31.15
2023-04-18T00:55:55.314Z,34.35
2023-04-18T00:58:25.899Z,33.55
2023-04-18T01:00:55.177Z,35.55
2023-04-18T01:03:24.512Z,39.08
2023-04-18T01:05:55.043Z,36.78
2023-04-18T01:08:24.221Z,36.73
2023-04-18T01:10:53.636Z,31.63
2023-04-18T01:13:22.752Z,32.83
2023-04-18T01:15:54.444Z,35.88
2023-04-18T01:18:24.414Z,31.67
2023-04-18T01:20:57.064Z,39.70
2023-04-18T01:23:26.210Z,38.72
2023-04-18T01:25:56.613Z,33.78
2023-04-18T01:28:28.520Z,45.88
2023-04-18T01:30:58.328Z,40.47
2023-04-18T01:33:27.401Z,42.13
2023-04-18T01:35:56.378Z,42.65
2023-04-18T01:38:25.381Z,42.13
2023-04-18T01:40:57.328Z,47.63
2023-04-18T01:43:26.369Z,48.63
2023-04-18T01:45:55.435Z,52.05
2023-04-18T01:48:24.492Z,53.45
2023-04-18T01:50:53.544Z,65.57
2023-04-18T01:53:24.121Z,60.25
2023-04-18T01:55:53.147Z,69.10
2023-04-18T01:58:23.910Z,56.47
2023-04-18T02:00:53.689Z,65.82
2023-04-18T02:03:23.713Z,62.47
2023-04-18T02:05:54.620Z,63.80
2023-04-18T02:08:23.821Z,70.95
2023-04-18T02:10:52.852Z,72.85
2023-04-18T02:13:24.368Z,74.50
2023-04-18T02:15:53.461Z,73.95
2023-04-18T02:18:24.784Z,87.53
2023-04-18T02:23:24.152Z,80.60
2023-04-18T02:25:53.600Z,84.07
2023-04-18T02:28:24.089Z,95.35
2023-04-18T02:30:53.122Z,85.17
2023-04-18T02:33:22.104Z,82.93
2023-04-18T02:35:51.351Z,108.00
2023-04-18T02:38:20.490Z,98.55
2023-04-18T02:40:54.135Z,103.40
2023-04-18T02:43:24.639Z,105.35
2023-04-18T02:45:53.889Z,102.72
2023-04-18T02:48:23.339Z,107.95
2023-04-18T02:50:52.802Z,97.05
2023-04-18T02:53:23.956Z,89.85
2023-04-18T02:55:56.203Z,86.25
2023-04-18T02:58:34.840Z,70.65
2023-04-18T03:01:36.004Z,70.15
2023-04-18T03:04:14.462Z,82.57
2023-04-18T03:06:47.881Z,93.25
2023-04-18T03:11:51.719Z,84.65
2023-04-18T03:14:27.598Z,93.10
2023-04-18T03:16:58.093Z,89.43
2023-04-18T03:19:32.664Z,83.78
2023-04-18T03:22:07.778Z,86.82
2023-04-18T03:24:39.927Z,83.05
2023-04-18T03:27:11.732Z,91.03
2023-04-18T03:29:43.235Z,84.70
2023-04-18T03:32:12.678Z,77.47
2023-04-18T03:34:41.750Z,73.97
2023-04-18T03:37:11.434Z,66.78
2023-04-18T03:39:46.026Z,95.15
2023-04-18T03:42:15.580Z,74.10
2023-04-18T03:44:46.927Z,78.10
2023-04-18T03:47:16.967Z,77.55
2023-04-18T03:49:49.995Z,76.03
2023-04-18T03:52:20.282Z,74.07
2023-04-18T03:54:49.606Z,77.60
2023-04-18T03:57:21.133Z,67.00
2023-04-18T03:59:51.559Z,68.93
2023-04-18T04:02:20.740Z,74.93
2023-04-18T04:04:52.191Z,77.20
2023-04-18T04:07:21.499Z,82.72
2023-04-18T04:09:50.520Z,85.20
2023-04-18T04:12:19.662Z,89.18
2023-04-18T04:14:51.004Z,89.03
2023-04-18T04:17:20.773Z,98.30
2023-04-18T04:19:51.241Z,99.97
2023-04-18T04:22:22.117Z,82.32
2023-04-18T04:24:52.040Z,79.97
2023-04-18T04:27:28.139Z,79.90
2023-04-18T04:29:58.984Z,85.47
2023-04-18T04:32:28.971Z,123.45
2023-04-18T04:34:58.032Z,84.03
2023-04-18T04:37:28.434Z,93.78
2023-04-18T04:40:19.641Z,99.40
2023-04-18T04:42:54.100Z,97.75
2023-04-18T04:45:31.254Z,119.45
2023-04-18T04:48:00.636Z,101.18
2023-04-18T04:50:29.766Z,105.10
2023-04-18T04:52:58.778Z,100.55
2023-04-18T04:55:27.921Z,99.57
2023-04-18T04:57:57.493Z,119.10
2023-04-18T05:00:37.911Z,106.40
2023-04-18T05:03:07.182Z,94.97
2023-04-18T05:05:36.889Z,100.88
2023-04-18T05:08:06.324Z,153.95
2023-04-18T05:10:37.134Z,109.85
2023-04-18T05:13:06.814Z,95.45
2023-04-18T05:15:37.530Z,105.57
2023-04-18T05:18:06.825Z,93.30
2023-04-18T05:20:35.979Z,87.13
2023-04-18T05:23:04.988Z,98.55
2023-04-18T05:25:34.069Z,100.55
2023-04-18T05:28:04.613Z,87.80
2023-04-18T05:30:33.630Z,82.43
2023-04-18T05:33:04.392Z,86.00
2023-04-18T05:35:33.735Z,80.78
2023-04-18T05:38:02.811Z,75.38
2023-04-18T05:40:31.865Z,69.18
2023-04-18T05:43:01.757Z,65.00
2023-04-18T05:45:30.796Z,61.25
2023-04-18T05:47:59.867Z,61.15
2023-04-18T05:50:30.412Z,63.35
2023-04-18T05:53:00.079Z,61.08
2023-04-18T05:55:29.147Z,60.65
2023-04-18T05:57:58.184Z,55.60
2023-04-18T06:00:27.315Z,59.15
2023-04-18T06:02:56.534Z,61.83
2023-04-18T06:05:26.153Z,66.22
2023-04-18T06:07:56.922Z,59.72
2023-04-18T06:10:26.162Z,56.75
2023-04-18T06:12:55.180Z,64.85
2023-04-18T06:15:24.170Z,56.05
2023-04-18T06:17:53.299Z,53.92
2023-04-18T06:20:23.234Z,57.35
2023-04-18T06:22:52.356Z,50.33
2023-04-18T06:25:22.946Z,109.55
2023-04-18T06:27:52.172Z,51.47
2023-04-18T06:30:22.156Z,48.65
2023-04-18T06:32:51.674Z,55.53
2023-04-18T06:35:20.775Z,56.03
2023-04-18T06:37:51.142Z,56.17
2023-04-18T06:40:20.356Z,60.50
2023-04-18T06:42:50.813Z,60.85
2023-04-18T06:45:20.235Z,57.95
2023-04-18T06:47:51.476Z,61.63
2023-04-18T06:50:20.579Z,57.15
2023-04-18T06:52:49.692Z,53.90
2023-04-18T06:55:18.909Z,59.03
2023-04-18T06:57:47.916Z,57.78
2023-04-18T07:00:19.002Z,58.70
2023-04-18T07:02:48.412Z,63.85
2023-04-18T07:05:17.513Z,61.78
2023-04-18T07:07:46.577Z,59.25
2023-04-18T07:10:15.636Z,58.70
2023-04-18T07:12:44.646Z,63.65
2023-04-18T07:15:13.975Z,60.20
2023-04-18T07:17:44.576Z,61.47
2023-04-18T07:20:14.420Z,54.88
2023-04-18T07:22:43.668Z,57.10
2023-04-18T07:25:12.904Z,55.47
2023-04-18T07:27:41.995Z,55.30
2023-04-18T07:30:11.985Z,53.75
2023-04-18T07:32:41.076Z,49.88
2023-04-18T07:35:12.236Z,44.00
2023-04-18T07:37:41.269Z,52.92
2023-04-18T07:40:11.582Z,48.67
2023-04-18T07:42:40.611Z,49.88
2023-04-18T07:45:09.998Z,47.53
2023-04-18T07:47:39.047Z,49.55
2023-04-18T07:50:10.408Z,43.63
2023-04-18T07:55:10.390Z,48.63
2023-04-18T07:57:39.424Z,46.72
2023-04-18T08:00:09.878Z,47.00
2023-04-18T08:02:44.818Z,45.97
2023-04-18T08:05:14.003Z,47.50
2023-04-18T08:07:44.452Z,51.42
2023-04-18T08:10:13.513Z,46.17
2023-04-18T08:12:42.543Z,46.55
2023-04-18T08:15:12.522Z,47.42
2023-04-18T08:17:43.994Z,52.17
2023-04-18T08:20:13.975Z,46.40
2023-04-18T08:22:57.456Z,50.75
2023-04-18T08:25:33.596Z,61.92
2023-04-18T08:28:02.836Z,61.90
2023-04-18T08:30:31.893Z,61.17
2023-04-18T08:33:01.093Z,63.22
2023-04-18T08:35:30.263Z,71.93
2023-04-18T08:38:02.162Z,70.65
2023-04-18T08:40:31.415Z,67.50
2023-04-18T08:43:05.008Z,67.28
2023-04-18T08:45:34.526Z,68.20
2023-04-18T08:48:04.032Z,65.47
2023-04-18T08:50:33.494Z,66.03
2023-04-18T08:53:04.104Z,67.20
2023-04-18T08:55:33.717Z,70.80
2023-04-18T08:58:03.284Z,66.53
2023-04-18T09:00:32.846Z,65.05
2023-04-18T09:03:03.937Z,69.22
2023-04-18T09:08:26.200Z,66.25
2023-04-18T09:10:55.219Z,65.80
2023-04-18T09:13:40.303Z,61.33
2023-04-18T09:16:09.327Z,57.05
2023-04-18T09:18:38.495Z,61.58
2023-04-18T09:21:19.748Z,57.80
2023-04-18T09:23:50.436Z,58.70
2023-04-18T09:26:33.923Z,53.85
2023-04-18T09:29:03.323Z,52.45
2023-04-18T09:31:32.575Z,50.00
2023-04-18T09:34:03.147Z,48.42
2023-04-18T09:36:32.498Z,51.20
2023-04-18T09:39:04.050Z,45.42
2023-04-18T09:41:33.919Z,48.72
2023-04-18T09:44:14.350Z,54.63
2023-04-18T09:46:47.082Z,54.28
2023-04-18T09:49:17.458Z,48.80
2023-04-18T09:51:47.348Z,50.97
2023-04-18T09:54:20.119Z,48.25
2023-04-18T09:56:51.880Z,47.80
2023-04-18T09:59:38.255Z,45.50
2023-04-18T10:02:13.500Z,42.95
2023-04-18T10:04:44.755Z,46.22
2023-04-18T10:09:48.036Z,45.30
2023-04-18T10:12:19.323Z,48.28
2023-04-18T10:17:17.359Z,41.53
2023-04-18T10:19:46.912Z,48.65
2023-04-18T10:22:15.894Z,44.67
2023-04-18T10:24:53.085Z,44.55
2023-04-18T10:27:56.881Z,40.20
2023-04-18T10:30:52.844Z,43.85
2023-04-18T10:33:42.005Z,41.22
2023-04-18T10:36:17.166Z,36.65
2023-04-18T10:38:50.824Z,42.42
2023-04-18T10:41:26.418Z,44.22
2023-04-18T10:44:22.716Z,41.22
2023-04-18T10:47:32.233Z,36.83
2023-04-18T10:50:06.312Z,36.08
2023-04-18T10:52:38.262Z,40.35
2023-04-18T10:55:18.565Z,37.85
2023-04-18T10:57:50.648Z,41.83
2023-04-18T11:00:21.843Z,43.60
2023-04-18T11:05:23.776Z,41.90
2023-04-18T11:07:53.031Z,45.47
2023-04-18T11:10:23.888Z,44.60
2023-04-18T11:12:55.552Z,34.70
2023-04-18T11:15:26.283Z,39.80
2023-04-18T11:18:01.369Z,43.78
2023-04-18T11:20:31.671Z,43.63
2023-04-18T11:23:01.572Z,38.10
2023-04-18T11:25:32.333Z,40.83
2023-04-18T11:28:04.630Z,43.13
2023-04-18T11:30:38.618Z,36.60
2023-04-18T11:33:09.449Z,43.38
2023-04-18T11:35:39.677Z,42.50
2023-04-18T11:38:10.379Z,41.13
2023-04-18T11:40:39.744Z,40.95
2023-04-18T11:43:10.180Z,37.53
2023-04-18T11:45:39.419Z,36.30
2023-04-18T11:48:08.492Z,38.95
2023-04-18T11:50:38.611Z,41.75
2023-04-18T11:53:07.614Z,39.58
2023-04-18T11:55:36.806Z,33.50
2023-04-18T11:58:06.167Z,35.78
2023-04-18T12:00:38.637Z,34.05
2023-04-18T12:03:11.732Z,37.28
2023-04-18T12:05:42.356Z,33.03
2023-04-18T12:08:13.333Z,41.28
2023-04-18T12:10:48.030Z,30.65
2023-04-18T12:13:17.220Z,32.70
2023-04-18T12:15:48.667Z,32.40
2023-04-18T12:20:51.684Z,34.28
2023-04-18T12:23:34.480Z,40.45
2023-04-18T12:26:04.782Z,37.83
2023-04-18T12:28:34.678Z,39.35
2023-04-18T12:31:07.386Z,34.97
2023-04-18T12:33:37.071Z,36.35
2023-04-18T12:36:08.329Z,38.90
2023-04-18T12:38:37.576Z,36.75
2023-04-18T12:41:06.759Z,39.50
2023-04-18T12:43:37.383Z,34.63
2023-04-18T12:46:07.903Z,34.15
2023-04-18T12:48:37.031Z,39.97
2023-04-18T12:51:07.038Z,36.58
2023-04-18T12:53:36.081Z,37.33
2023-04-18T12:56:05.780Z,39.33
2023-04-18T12:58:34.948Z,38.38
2023-04-18T13:01:04.883Z,40.47
2023-04-18T13:03:35.492Z,40.15
2023-04-18T13:06:06.112Z,40.00
2023-04-18T13:08:37.541Z,32.55
2023-04-18T13:11:06.714Z,38.45
2023-04-18T13:13:35.894Z,34.45
2023-04-18T13:16:05.368Z,34.90
2023-04-18T13:18:35.961Z,32.08
2023-04-18T13:21:05.194Z,36.20
2023-04-18T13:23:34.252Z,40.70
2023-04-18T13:26:03.453Z,39.05
2023-04-18T13:28:32.545Z,34.95
2023-04-18T13:31:01.628Z,38.53
2023-04-18T13:33:30.833Z,45.75
2023-04-18T13:36:01.318Z,36.92
2023-04-18T13:38:30.738Z,38.45
2023-04-18T13:41:11.331Z,37.90
2023-04-18T13:43:41.066Z,35.67
2023-04-18T13:46:10.279Z,44.60
2023-04-18T13:48:39.329Z,41.17
2023-04-18T13:51:09.807Z,57.53
2023-04-18T13:53:38.865Z,44.70
2023-04-18T13:56:08.361Z,54.75
2023-04-18T13:58:37.421Z,52.15
2023-04-18T14:01:06.754Z,49.17
2023-04-18T14:03:38.348Z,55.33
2023-04-18T14:06:09.950Z,60.85
2023-04-18T14:08:40.086Z,68.57
2023-04-18T14:11:09.141Z,66.50
2023-04-18T14:13:38.212Z,60.58
2023-04-18T14:16:08.285Z,61.42
2023-04-18T14:18:37.760Z,60.63
2023-04-18T14:21:07.429Z,56.83
2023-04-18T14:23:37.872Z,57.78
2023-04-18T14:26:07.054Z,59.60
2023-04-18T14:28:36.327Z,59.67
2023-04-18T14:31:06.581Z,55.97
2023-04-18T14:33:35.869Z,54.23
2023-04-18T14:36:05.247Z,52.38
2023-04-18T14:38:34.484Z,60.72
2023-04-18T14:41:05.363Z,55.58
2023-04-18T14:43:34.489Z,61.10
2023-04-18T14:46:03.779Z,53.05
2023-04-18T14:48:33.004Z,57.58
2023-04-18T14:51:02.645Z,48.10
2023-04-18T14:53:31.712Z,58.95
2023-04-18T14:56:00.801Z,52.50
2023-04-18T14:58:31.374Z,56.28
2023-04-18T15:01:00.546Z,51.88
2023-04-18T15:03:29.820Z,48.95
2023-04-18T15:05:59.165Z,49.38
2023-04-18T15:08:28.586Z,54.63
2023-04-18T15:10:58.094Z,57.70
2023-04-18T15:13:27.380Z,58.08
2023-04-18T15:15:58.175Z,55.85
2023-04-18T15:18:27.285Z,52.20
2023-04-18T15:20:57.092Z,54.05
2023-04-18T15:23:26.172Z,57.95
2023-04-18T15:25:55.361Z,62.70
2023-04-18T15:28:24.399Z,53.92
2023-04-18T15:30:53.568Z,58.95
2023-04-18T15:33:25.230Z,56.03
2023-04-18T15:35:56.080Z,55.15
2023-04-18T15:38:25.263Z,55.45
2023-04-18T15:40:54.286Z,52.67
2023-04-18T15:43:23.291Z,55.50
2023-04-18T15:45:52.619Z,53.55
2023-04-18T15:48:23.134Z,52.00
2023-04-18T15:50:52.883Z,52.72
2023-04-18T15:53:21.972Z,53.42
2023-04-18T15:55:51.465Z,60.03
2023-04-18T15:58:22.032Z,52.95
2023-04-18T16:00:52.070Z,56.78
2023-04-18T16:03:21.596Z,53.72
2023-04-18T16:05:52.561Z,48.75
2023-04-18T16:08:21.642Z,52.83
2023-04-18T16:10:53.236Z,52.97
2023-04-18T16:13:22.350Z,47.40
2023-04-18T16:15:51.436Z,52.83
2023-04-18T16:18:20.506Z,49.33
2023-04-18T16:20:49.671Z,49.80
2023-04-18T16:23:20.674Z,46.85
2023-04-18T16:25:49.733Z,54.15
2023-04-18T16:28:18.784Z,48.63
2023-04-18T16:30:47.992Z,50.90
2023-04-18T16:33:18.539Z,56.03
2023-04-18T16:35:47.726Z,52.22
2023-04-18T16:38:16.784Z,45.63
2023-04-18T16:40:47.286Z,54.03
2023-04-18T16:43:16.392Z,49.78
2023-04-18T16:45:45.498Z,52.88
2023-04-18T16:48:14.671Z,47.88
2023-04-18T16:50:45.717Z,49.97
2023-04-18T16:53:14.830Z,49.88
2023-04-18T16:55:43.945Z,52.58
2023-04-18T16:58:14.408Z,46.30
2023-04-18T17:00:43.530Z,43.33
2023-04-18T17:03:12.628Z,42.92
2023-04-18T17:05:41.614Z,44.83
2023-04-18T17:08:10.764Z,46.63
2023-04-18T17:10:39.803Z,43.85
2023-04-18T17:13:08.826Z,37.60
2023-04-18T17:15:39.386Z,38.67
2023-04-18T17:18:08.505Z,39.20
2023-04-18T17:20:38.002Z,34.58
2023-04-18T17:23:07.180Z,34.78
2023-04-18T17:25:36.641Z,37.75
2023-04-18T17:28:06.225Z,38.40
2023-04-18T17:30:35.617Z,35.92
2023-04-18T17:33:06.193Z,36.92
2023-04-18T17:35:35.590Z,32.08
2023-04-18T17:38:04.695Z,32.78
2023-04-18T17:40:33.776Z,32.50
2023-04-18T17:43:02.822Z,30.48
2023-04-18T17:45:31.904Z,28.88
2023-04-18T17:48:03.005Z,28.90
2023-04-18T17:50:36.930Z,31.88
2023-04-18T17:53:06.084Z,28.83
2023-04-18T17:55:35.171Z,37.88
2023-04-18T17:58:05.244Z,27.92
2023-04-18T18:00:34.283Z,34.70
2023-04-18T18:03:03.868Z,31.20
2023-04-18T18:05:34.543Z,28.33
2023-04-18T18:08:03.562Z,27.80
2023-04-18T18:10:33.488Z,31.33
2023-04-18T18:13:02.521Z,27.08
2023-04-18T18:15:31.656Z,33.03
2023-04-18T18:18:02.009Z,31.80
2023-04-18T18:20:31.109Z,26.53
2023-04-18T18:23:01.918Z,31.70
2023-04-18T18:25:31.264Z,29.55
2023-04-18T18:28:02.272Z,28.00
2023-04-18T18:30:31.420Z,25.38
2023-04-18T18:33:01.981Z,27.83
2023-04-18T18:35:31.306Z,24.55
2023-04-18T18:38:01.848Z,28.77
2023-04-18T18:40:31.060Z,31.43
2023-04-18T18:43:00.051Z,24.83
2023-04-18T18:45:29.326Z,28.75
2023-04-18T18:47:58.489Z,26.58
2023-04-18T18:50:27.738Z,26.75
2023-04-18T18:52:56.753Z,24.55
2023-04-18T18:55:27.322Z,29.45
2023-04-18T18:57:56.364Z,31.05
2023-04-18T19:00:25.668Z,27.27
2023-04-18T19:02:55.090Z,30.38
2023-04-18T19:05:24.469Z,32.13
2023-04-18T19:07:53.527Z,23.52
2023-04-18T19:10:23.278Z,28.80
2023-04-18T19:12:53.759Z,26.83
2023-04-18T19:15:22.914Z,31.67
2023-04-18T19:17:51.957Z,29.23
2023-04-18T19:20:21.456Z,33.75
2023-04-18T19:22:51.089Z,28.15
2023-04-18T19:25:20.300Z,31.20
2023-04-18T19:27:49.605Z,30.38
2023-04-18T19:30:20.529Z,35.35
2023-04-18T19:32:49.882Z,31.05
2023-04-18T19:35:18.981Z,39.67
2023-04-18T19:37:48.091Z,31.08
2023-04-18T19:40:17.199Z,28.85
2023-04-18T19:42:46.715Z,33.55
2023-04-18T19:45:15.814Z,33.05
2023-04-18T19:47:47.841Z,34.17
2023-04-18T19:50:16.995Z,35.63
2023-04-18T19:52:46.272Z,34.78
2023-04-18T19:55:15.447Z,31.05
2023-04-18T19:57:44.855Z,33.65
2023-04-18T20:00:15.293Z,30.15
2023-04-18T20:02:46.003Z,26.83
2023-04-18T20:05:15.699Z,37.92
2023-04-18T20:07:45.426Z,34.30
2023-04-18T20:10:14.642Z,33.08
2023-04-18T20:12:43.639Z,34.63
2023-04-18T20:15:13.276Z,29.25
2023-04-18T20:17:42.374Z,28.67
2023-04-18T20:20:14.043Z,29.52
2023-04-18T20:22:44.786Z,27.45
2023-04-18T20:25:13.827Z,34.58
2023-04-18T20:27:42.880Z,26.60
2023-04-18T20:30:12.580Z,29.30
2023-04-18T20:32:41.620Z,29.05
2023-04-18T20:35:12.634Z,30.65
2023-04-18T20:37:41.698Z,26.10
2023-04-18T20:40:11.394Z,30.10
2023-04-18T20:42:40.408Z,25.33
2023-04-18T20:45:11.238Z,25.20
2023-04-18T20:47:41.409Z,27.95
2023-04-18T20:50:14.117Z,29.90
2023-04-18T20:52:43.700Z,28.05
2023-04-18T20:55:12.785Z,26.83
2023-04-18T20:57:41.880Z,27.80
2023-04-18T21:00:12.346Z,30.15
2023-04-18T21:02:41.718Z,25.87
2023-04-18T21:05:12.439Z,25.40
2023-04-18T21:07:41.819Z,26.07
2023-04-18T21:10:12.087Z,26.17
2023-04-18T21:12:41.155Z,23.45
2023-04-18T21:15:10.860Z,24.58
2023-04-18T21:17:39.904Z,23.42
2023-04-18T21:20:10.254Z,21.42
2023-04-18T21:22:40.664Z,26.77
2023-04-18T21:25:10.690Z,25.70
2023-04-18T21:27:39.798Z,22.27
2023-04-18T21:30:09.702Z,27.95
2023-04-18T21:32:38.879Z,27.45
2023-04-18T21:35:08.535Z,29.25
2023-04-18T21:37:37.672Z,25.75
2023-04-18T21:40:09.750Z,28.23
2023-04-18T21:42:38.853Z,27.25
2023-04-18T21:45:09.152Z,32.55
2023-04-18T21:47:38.344Z,22.40
2023-04-18T21:50:08.738Z,20.67
2023-04-18T21:52:38.112Z,25.65
2023-04-18T21:55:09.346Z,26.25
2023-04-18T21:57:38.364Z,28.67
2023-04-18T22:00:10.710Z,29.48
2023-04-18T22:02:42.140Z,27.65
2023-04-18T22:05:12.965Z,25.63
2023-04-18T22:07:50.500Z,29.10
2023-04-18T22:10:25.281Z,30.95
2023-04-18T22:12:54.654Z,29.85
2023-04-18T22:15:23.922Z,30.85
2023-04-18T22:17:53.095Z,24.70
2023-04-18T22:20:22.742Z,29.80
2023-04-18T22:22:51.801Z,27.30
2023-04-18T22:25:21.138Z,26.75
2023-04-18T22:27:51.600Z,26.98
2023-04-18T22:30:20.689Z,23.33
2023-04-18T22:32:49.796Z,30.08
2023-04-18T22:35:19.426Z,30.98
2023-04-18T22:37:48.513Z,26.23
2023-04-18T22:40:17.734Z,23.23
2023-04-18T22:42:46.743Z,41.58
2023-04-18T22:45:17.160Z,32.55
2023-04-18T22:47:46.399Z,32.22
2023-04-18T22:50:16.068Z,35.90
2023-04-18T22:52:45.154Z,26.95
2023-04-18T22:55:16.423Z,28.10
2023-04-18T23:00:16.434Z,34.45
2023-04-18T23:05:16.105Z,32.00
2023-04-18T23:07:45.137Z,26.55
2023-04-18T23:10:14.181Z,23.77
2023-04-18T23:12:43.195Z,24.73
2023-04-18T23:15:12.789Z,26.58
2023-04-18T23:17:43.463Z,22.92
2023-04-18T23:20:13.833Z,20.52
2023-04-18T23:22:42.882Z,26.53
2023-04-18T23:25:11.962Z,27.00
2023-04-18T23:27:41.047Z,19.10
2023-04-18T23:30:11.118Z,24.25
2023-04-18T23:32:40.317Z,23.42
2023-04-18T23:35:12.444Z,20.77
2023-04-18T23:37:42.230Z,25.38
2023-04-18T23:40:11.443Z,24.35
2023-04-18T23:42:40.470Z,25.58
2023-04-18T23:45:10.015Z,23.83
2023-04-18T23:47:39.102Z,32.45
2023-04-18T23:50:10.746Z,26.15
2023-04-18T23:52:40.594Z,28.55
2023-04-18T23:55:10.280Z,32.03
2023-04-18T23:57:39.352Z,23.38
